sensor_id;sensor_type;location;lat;lon;timestamp;temperature;humidity
19242;DHT22;9755;47.790;9.620;2023-05-10T00:01:28;13.10;99.90
19242;DHT22;9755;47.790;9.620;2023-05-10T00:03:55;13.00;99.90
19242;DHT22;9755;47.790;9.620;2023-05-10T00:06:22;13.00;99.90
19242;DHT22;9755;47.790;9.620;2023-05-10T00:08:51;13.00;99.90
19242;DHT22;9755;47.790;9.620;2023-05-10T00:11:21;13.00;99.90
19242;DHT22;9755;47.790;9.620;2023-05-10T00:13:48;13.00;99.90
19242;DHT22;9755;47.790;9.620;2023-05-10T00:16:16;13.00;99.90
19242;DHT22;9755;47.790;9.620;2023-05-10T00:18:43;13.00;99.90
19242;DHT22;9755;47.790;9.620;2023-05-10T00:21:12;13.10;99.90
19242;DHT22;9755;47.790;9.620;2023-05-10T00:23:39;13.10;99.90
19242;DHT22;9755;47.790;9.620;2023-05-10T00:26:07;13.00;99.90
19242;DHT22;9755;47.790;9.620;2023-05-10T00:28:36;13.00;99.90
19242;DHT22;9755;47.790;9.620;2023-05-10T00:31:03;13.00;99.90
19242;DHT22;9755;47.790;9.620;2023-05-10T00:33:30;13.00;99.90
19242;DHT22;9755;47.790;9.620;2023-05-10T00:35:57;13.00;99.90
19242;DHT22;9755;47.790;9.620;2023-05-10T00:38:25;12.90;99.90
19242;DHT22;9755;47.790;9.620;2023-05-10T00:40:55;12.90;99.90
19242;DHT22;9755;47.790;9.620;2023-05-10T00:43:26;12.90;99.90
19242;DHT22;9755;47.790;9.620;2023-05-10T00:45:53;12.90;99.90
19242;DHT22;9755;47.790;9.620;2023-05-10T00:48:21;12.80;99.90
19242;DHT22;9755;47.790;9.620;2023-05-10T00:50:55;12.80;99.90
19242;DHT22;9755;47.790;9.620;2023-05-10T00:53:22;12.70;99.90
19242;DHT22;9755;47.790;9.620;2023-05-10T00:55:50;12.60;99.90
19242;DHT22;9755;47.790;9.620;2023-05-10T00:58:17;12.60;99.90
19242;DHT22;9755;47.790;9.620;2023-05-10T01:00:46;12.60;99.90
19242;DHT22;9755;47.790;9.620;2023-05-10T01:03:14;12.50;99.90
19242;DHT22;9755;47.790;9.620;2023-05-10T01:05:41;12.50;99.90
19242;DHT22;9755;47.790;9.620;2023-05-10T01:08:08;12.50;99.90
19242;DHT22;9755;47.790;9.620;2023-05-10T01:10:35;12.50;99.90
19242;DHT22;9755;47.790;9.620;2023-05-10T01:13:02;12.50;99.90
19242;DHT22;9755;47.790;9.620;2023-05-10T01:15:30;12.50;99.90
19242;DHT22;9755;47.790;9.620;2023-05-10T01:18:02;12.50;99.90
19242;DHT22;9755;47.790;9.620;2023-05-10T01:20:42;12.50;99.90
19242;DHT22;9755;47.790;9.620;2023-05-10T01:23:25;12.50;99.90
19242;DHT22;9755;47.790;9.620;2023-05-10T01:31:59;12.50;99.90
19242;DHT22;9755;47.790;9.620;2023-05-10T01:34:35;12.50;99.90
19242;DHT22;9755;47.790;9.620;2023-05-10T01:37:13;12.40;99.90
19242;DHT22;9755;47.790;9.620;2023-05-10T01:39:45;12.40;99.90
19242;DHT22;9755;47.790;9.620;2023-05-10T01:42:17;12.40;99.90
19242;DHT22;9755;47.790;9.620;2023-05-10T01:44:52;12.40;99.90
19242;DHT22;9755;47.790;9.620;2023-05-10T01:47:29;12.40;99.90
19242;DHT22;9755;47.790;9.620;2023-05-10T01:50:02;12.40;99.90
19242;DHT22;9755;47.790;9.620;2023-05-10T01:52:36;12.40;99.90
19242;DHT22;9755;47.790;9.620;2023-05-10T01:55:06;12.30;99.90
19242;DHT22;9755;47.790;9.620;2023-05-10T01:57:36;12.30;99.90
19242;DHT22;9755;47.790;9.620;2023-05-10T02:00:08;12.30;99.90
19242;DHT22;9755;47.790;9.620;2023-05-10T02:02:41;12.30;99.90
19242;DHT22;9755;47.790;9.620;2023-05-10T02:05:13;12.20;99.90
19242;DHT22;9755;47.790;9.620;2023-05-10T02:07:41;12.20;99.90
19242;DHT22;9755;47.790;9.620;2023-05-10T02:10:10;12.20;99.90
19242;DHT22;9755;47.790;9.620;2023-05-10T02:12:42;12.20;99.90
19242;DHT22;9755;47.790;9.620;2023-05-10T02:15:12;12.20;99.90
19242;DHT22;9755;47.790;9.620;2023-05-10T02:17:46;12.20;99.90
19242;DHT22;9755;47.790;9.620;2023-05-10T02:20:16;12.20;99.90
19242;DHT22;9755;47.790;9.620;2023-05-10T02:22:49;12.20;99.90
19242;DHT22;9755;47.790;9.620;2023-05-10T02:25:18;12.20;99.90
19242;DHT22;9755;47.790;9.620;2023-05-10T02:27:48;12.20;99.90
19242;DHT22;9755;47.790;9.620;2023-05-10T02:30:18;12.10;99.90
19242;DHT22;9755;47.790;9.620;2023-05-10T02:32:49;12.20;99.90
19242;DHT22;9755;47.790;9.620;2023-05-10T02:35:18;12.10;99.90
19242;DHT22;9755;47.790;9.620;2023-05-10T02:37:47;12.10;99.90
19242;DHT22;9755;47.790;9.620;2023-05-10T02:40:15;12.10;99.90
19242;DHT22;9755;47.790;9.620;2023-05-10T02:42:44;12.10;99.90
19242;DHT22;9755;47.790;9.620;2023-05-10T02:45:14;12.10;99.90
19242;DHT22;9755;47.790;9.620;2023-05-10T02:47:41;12.10;99.90
19242;DHT22;9755;47.790;9.620;2023-05-10T02:50:10;12.10;99.90
19242;DHT22;9755;47.790;9.620;2023-05-10T02:52:40;12.10;99.90
19242;DHT22;9755;47.790;9.620;2023-05-10T02:55:09;12.10;99.90
19242;DHT22;9755;47.790;9.620;2023-05-10T02:57:43;12.10;99.90
19242;DHT22;9755;47.790;9.620;2023-05-10T03:00:15;12.10;99.90
19242;DHT22;9755;47.790;9.620;2023-05-10T03:02:42;12.00;99.90
19242;DHT22;9755;47.790;9.620;2023-05-10T03:05:12;12.10;99.90
19242;DHT22;9755;47.790;9.620;2023-05-10T03:07:39;12.10;99.90
19242;DHT22;9755;47.790;9.620;2023-05-10T03:10:07;12.00;99.90
19242;DHT22;9755;47.790;9.620;2023-05-10T03:12:47;12.00;99.90
19242;DHT22;9755;47.790;9.620;2023-05-10T03:15:22;12.00;99.90
19242;DHT22;9755;47.790;9.620;2023-05-10T03:18:00;12.00;99.90
19242;DHT22;9755;47.790;9.620;2023-05-10T03:20:35;12.00;99.90
19242;DHT22;9755;47.790;9.620;2023-05-10T03:23:09;12.00;99.90
19242;DHT22;9755;47.790;9.620;2023-05-10T03:25:38;12.00;99.90
19242;DHT22;9755;47.790;9.620;2023-05-10T03:28:07;12.00;99.90
19242;DHT22;9755;47.790;9.620;2023-05-10T03:30:37;12.00;99.90
19242;DHT22;9755;47.790;9.620;2023-05-10T03:33:08;12.00;99.90
19242;DHT22;9755;47.790;9.620;2023-05-10T03:35:43;12.00;99.90
19242;DHT22;9755;47.790;9.620;2023-05-10T03:38:11;12.00;99.90
19242;DHT22;9755;47.790;9.620;2023-05-10T03:40:38;12.00;99.90
19242;DHT22;9755;47.790;9.620;2023-05-10T03:43:06;12.00;99.90
19242;DHT22;9755;47.790;9.620;2023-05-10T03:45:33;11.90;99.90
19242;DHT22;9755;47.790;9.620;2023-05-10T03:48:00;11.90;99.90
19242;DHT22;9755;47.790;9.620;2023-05-10T03:50:27;11.90;99.90
19242;DHT22;9755;47.790;9.620;2023-05-10T03:52:56;12.00;99.90
19242;DHT22;9755;47.790;9.620;2023-05-10T03:55:23;11.90;99.90
19242;DHT22;9755;47.790;9.620;2023-05-10T03:57:50;11.90;99.90
19242;DHT22;9755;47.790;9.620;2023-05-10T04:00:19;11.90;99.90
19242;DHT22;9755;47.790;9.620;2023-05-10T04:02:46;11.90;99.90
19242;DHT22;9755;47.790;9.620;2023-05-10T04:05:13;11.90;99.90
19242;DHT22;9755;47.790;9.620;2023-05-10T04:07:40;11.90;99.90
19242;DHT22;9755;47.790;9.620;2023-05-10T04:10:10;11.90;99.90
19242;DHT22;9755;47.790;9.620;2023-05-10T04:12:37;11.90;99.90
19242;DHT22;9755;47.790;9.620;2023-05-10T04:15:08;11.90;99.90
19242;DHT22;9755;47.790;9.620;2023-05-10T04:17:35;11.90;99.90
19242;DHT22;9755;47.790;9.620;2023-05-10T04:20:06;11.90;99.90
19242;DHT22;9755;47.790;9.620;2023-05-10T04:22:33;12.00;99.90
19242;DHT22;9755;47.790;9.620;2023-05-10T04:25:01;12.00;99.90
19242;DHT22;9755;47.790;9.620;2023-05-10T04:27:30;12.00;99.90
19242;DHT22;9755;47.790;9.620;2023-05-10T04:29:57;11.90;99.90
19242;DHT22;9755;47.790;9.620;2023-05-10T04:32:24;12.00;99.90
19242;DHT22;9755;47.790;9.620;2023-05-10T04:34:54;12.00;99.90
19242;DHT22;9755;47.790;9.620;2023-05-10T04:37:21;12.00;99.90
19242;DHT22;9755;47.790;9.620;2023-05-10T04:39:51;12.00;99.90
19242;DHT22;9755;47.790;9.620;2023-05-10T04:42:20;12.10;99.90
19242;DHT22;9755;47.790;9.620;2023-05-10T04:44:48;12.20;99.90
19242;DHT22;9755;47.790;9.620;2023-05-10T04:47:43;12.20;99.90
19242;DHT22;9755;47.790;9.620;2023-05-10T04:50:21;12.20;99.90
19242;DHT22;9755;47.790;9.620;2023-05-10T04:52:51;12.20;99.90
19242;DHT22;9755;47.790;9.620;2023-05-10T04:55:20;12.30;99.90
19242;DHT22;9755;47.790;9.620;2023-05-10T04:57:47;12.30;99.90
19242;DHT22;9755;47.790;9.620;2023-05-10T05:00:17;12.30;99.90
19242;DHT22;9755;47.790;9.620;2023-05-10T05:02:45;12.30;99.90
19242;DHT22;9755;47.790;9.620;2023-05-10T05:05:13;12.40;99.90
19242;DHT22;9755;47.790;9.620;2023-05-10T05:07:40;12.50;99.90
19242;DHT22;9755;47.790;9.620;2023-05-10T05:10:08;12.40;99.90
19242;DHT22;9755;47.790;9.620;2023-05-10T05:12:37;12.40;99.90
19242;DHT22;9755;47.790;9.620;2023-05-10T05:15:08;12.50;99.90
19242;DHT22;9755;47.790;9.620;2023-05-10T05:17:37;12.50;99.90
19242;DHT22;9755;47.790;9.620;2023-05-10T05:20:05;12.60;99.90
19242;DHT22;9755;47.790;9.620;2023-05-10T05:22:32;12.60;99.90
19242;DHT22;9755;47.790;9.620;2023-05-10T05:28:16;12.70;99.90
19242;DHT22;9755;47.790;9.620;2023-05-10T05:30:43;12.70;99.90
19242;DHT22;9755;47.790;9.620;2023-05-10T05:33:14;12.80;99.90
19242;DHT22;9755;47.790;9.620;2023-05-10T05:35:43;12.80;99.90
19242;DHT22;9755;47.790;9.620;2023-05-10T05:38:18;12.80;99.90
19242;DHT22;9755;47.790;9.620;2023-05-10T05:40:49;12.90;99.90
19242;DHT22;9755;47.790;9.620;2023-05-10T05:43:19;13.10;99.90
19242;DHT22;9755;47.790;9.620;2023-05-10T05:45:48;13.20;99.90
19242;DHT22;9755;47.790;9.620;2023-05-10T05:48:20;13.30;99.90
19242;DHT22;9755;47.790;9.620;2023-05-10T05:50:47;13.40;99.90
19242;DHT22;9755;47.790;9.620;2023-05-10T05:53:14;13.50;99.90
19242;DHT22;9755;47.790;9.620;2023-05-10T05:55:51;13.60;99.90
19242;DHT22;9755;47.790;9.620;2023-05-10T05:58:19;13.50;99.90
19242;DHT22;9755;47.790;9.620;2023-05-10T06:00:46;13.40;99.90
19242;DHT22;9755;47.790;9.620;2023-05-10T06:03:13;13.40;99.90
19242;DHT22;9755;47.790;9.620;2023-05-10T06:05:42;13.40;99.90
19242;DHT22;9755;47.790;9.620;2023-05-10T06:08:09;13.30;99.90
19242;DHT22;9755;47.790;9.620;2023-05-10T06:10:52;13.30;99.90
19242;DHT22;9755;47.790;9.620;2023-05-10T06:13:22;13.30;99.90
19242;DHT22;9755;47.790;9.620;2023-05-10T06:15:49;13.20;99.90
19242;DHT22;9755;47.790;9.620;2023-05-10T06:18:17;13.10;99.90
19242;DHT22;9755;47.790;9.620;2023-05-10T06:20:45;13.10;99.90
19242;DHT22;9755;47.790;9.620;2023-05-10T06:23:12;13.10;99.90
19242;DHT22;9755;47.790;9.620;2023-05-10T06:25:41;13.10;99.90
19242;DHT22;9755;47.790;9.620;2023-05-10T06:28:08;13.20;99.90
19242;DHT22;9755;47.790;9.620;2023-05-10T06:30:36;13.20;99.90
19242;DHT22;9755;47.790;9.620;2023-05-10T06:33:03;13.40;99.90
19242;DHT22;9755;47.790;9.620;2023-05-10T06:35:30;13.50;99.90
19242;DHT22;9755;47.790;9.620;2023-05-10T06:38:00;13.60;99.90
19242;DHT22;9755;47.790;9.620;2023-05-10T06:40:27;13.50;99.90
19242;DHT22;9755;47.790;9.620;2023-05-10T06:42:54;13.60;99.90
19242;DHT22;9755;47.790;9.620;2023-05-10T06:45:21;13.80;99.90
19242;DHT22;9755;47.790;9.620;2023-05-10T06:47:50;13.80;99.90
19242;DHT22;9755;47.790;9.620;2023-05-10T06:50:17;13.90;99.90
19242;DHT22;9755;47.790;9.620;2023-05-10T06:52:44;13.90;99.90
19242;DHT22;9755;47.790;9.620;2023-05-10T06:55:15;13.90;99.90
19242;DHT22;9755;47.790;9.620;2023-05-10T06:57:42;13.90;99.90
19242;DHT22;9755;47.790;9.620;2023-05-10T07:00:10;13.80;99.90
19242;DHT22;9755;47.790;9.620;2023-05-10T07:02:37;13.80;99.90
19242;DHT22;9755;47.790;9.620;2023-05-10T07:05:05;13.60;99.90
19242;DHT22;9755;47.790;9.620;2023-05-10T07:07:35;13.60;99.90
19242;DHT22;9755;47.790;9.620;2023-05-10T07:10:04;13.70;99.90
19242;DHT22;9755;47.790;9.620;2023-05-10T07:12:34;13.60;99.90
19242;DHT22;9755;47.790;9.620;2023-05-10T07:15:01;13.50;99.90
19242;DHT22;9755;47.790;9.620;2023-05-10T07:17:28;13.50;99.90
19242;DHT22;9755;47.790;9.620;2023-05-10T07:19:55;13.50;99.90
19242;DHT22;9755;47.790;9.620;2023-05-10T07:22:22;13.40;99.90
19242;DHT22;9755;47.790;9.620;2023-05-10T07:24:49;13.50;99.90
19242;DHT22;9755;47.790;9.620;2023-05-10T07:27:18;13.50;99.90
19242;DHT22;9755;47.790;9.620;2023-05-10T07:29:46;13.50;99.90
19242;DHT22;9755;47.790;9.620;2023-05-10T07:32:14;13.40;99.90
19242;DHT22;9755;47.790;9.620;2023-05-10T07:34:41;13.40;99.90
19242;DHT22;9755;47.790;9.620;2023-05-10T07:37:08;13.40;99.90
19242;DHT22;9755;47.790;9.620;2023-05-10T07:39:35;13.40;99.90
19242;DHT22;9755;47.790;9.620;2023-05-10T07:42:03;13.40;99.90
19242;DHT22;9755;47.790;9.620;2023-05-10T07:44:30;13.40;99.90
19242;DHT22;9755;47.790;9.620;2023-05-10T07:46:58;13.40;99.90
19242;DHT22;9755;47.790;9.620;2023-05-10T07:49:25;13.50;99.90
19242;DHT22;9755;47.790;9.620;2023-05-10T07:51:52;13.60;99.90
19242;DHT22;9755;47.790;9.620;2023-05-10T07:54:19;13.60;99.90
19242;DHT22;9755;47.790;9.620;2023-05-10T07:56:47;13.80;99.90
19242;DHT22;9755;47.790;9.620;2023-05-10T07:59:16;13.70;99.90
19242;DHT22;9755;47.790;9.620;2023-05-10T08:01:44;13.80;99.90
19242;DHT22;9755;47.790;9.620;2023-05-10T08:04:13;13.80;99.90
19242;DHT22;9755;47.790;9.620;2023-05-10T08:06:40;13.80;99.90
19242;DHT22;9755;47.790;9.620;2023-05-10T08:09:07;13.80;99.90
19242;DHT22;9755;47.790;9.620;2023-05-10T08:11:34;14.00;99.90
19242;DHT22;9755;47.790;9.620;2023-05-10T08:14:02;14.00;99.90
19242;DHT22;9755;47.790;9.620;2023-05-10T08:16:29;14.00;99.90
19242;DHT22;9755;47.790;9.620;2023-05-10T08:18:56;14.10;99.90
19242;DHT22;9755;47.790;9.620;2023-05-10T08:21:25;14.20;99.90
19242;DHT22;9755;47.790;9.620;2023-05-10T08:23:54;14.30;99.90
19242;DHT22;9755;47.790;9.620;2023-05-10T08:26:21;14.30;99.90
19242;DHT22;9755;47.790;9.620;2023-05-10T08:28:48;14.40;99.90
19242;DHT22;9755;47.790;9.620;2023-05-10T08:31:18;14.50;99.90
19242;DHT22;9755;47.790;9.620;2023-05-10T08:33:45;14.70;99.90
19242;DHT22;9755;47.790;9.620;2023-05-10T08:36:12;14.90;99.90
19242;DHT22;9755;47.790;9.620;2023-05-10T08:38:51;14.90;99.90
19242;DHT22;9755;47.790;9.620;2023-05-10T08:41:20;15.00;99.90
19242;DHT22;9755;47.790;9.620;2023-05-10T08:43:47;15.00;99.90
19242;DHT22;9755;47.790;9.620;2023-05-10T08:46:16;15.00;99.90
19242;DHT22;9755;47.790;9.620;2023-05-10T08:48:44;15.10;99.90
19242;DHT22;9755;47.790;9.620;2023-05-10T08:51:14;15.20;99.90
19242;DHT22;9755;47.790;9.620;2023-05-10T08:53:42;15.40;99.90
19242;DHT22;9755;47.790;9.620;2023-05-10T08:56:12;15.30;99.90
19242;DHT22;9755;47.790;9.620;2023-05-10T08:58:41;15.40;99.90
19242;DHT22;9755;47.790;9.620;2023-05-10T09:01:08;15.30;99.90
19242;DHT22;9755;47.790;9.620;2023-05-10T09:03:40;15.30;99.90
19242;DHT22;9755;47.790;9.620;2023-05-10T09:06:07;15.30;99.90
19242;DHT22;9755;47.790;9.620;2023-05-10T09:08:36;15.20;99.90
19242;DHT22;9755;47.790;9.620;2023-05-10T09:11:05;15.10;99.90
19242;DHT22;9755;47.790;9.620;2023-05-10T09:13:35;15.10;99.90
19242;DHT22;9755;47.790;9.620;2023-05-10T09:16:03;15.10;99.90
19242;DHT22;9755;47.790;9.620;2023-05-10T09:18:32;15.20;99.90
19242;DHT22;9755;47.790;9.620;2023-05-10T09:20:59;15.20;99.90
19242;DHT22;9755;47.790;9.620;2023-05-10T09:23:26;15.10;99.90
19242;DHT22;9755;47.790;9.620;2023-05-10T09:26:04;15.10;99.90
19242;DHT22;9755;47.790;9.620;2023-05-10T09:28:33;15.30;99.90
19242;DHT22;9755;47.790;9.620;2023-05-10T09:31:00;15.30;99.90
19242;DHT22;9755;47.790;9.620;2023-05-10T09:33:29;15.40;99.90
19242;DHT22;9755;47.790;9.620;2023-05-10T09:36:10;15.10;99.90
19242;DHT22;9755;47.790;9.620;2023-05-10T09:38:45;15.40;99.90
19242;DHT22;9755;47.790;9.620;2023-05-10T09:41:16;15.60;99.90
19242;DHT22;9755;47.790;9.620;2023-05-10T09:43:45;15.40;99.90
19242;DHT22;9755;47.790;9.620;2023-05-10T09:46:12;15.30;99.90
19242;DHT22;9755;47.790;9.620;2023-05-10T09:48:44;15.30;99.90
19242;DHT22;9755;47.790;9.620;2023-05-10T09:51:18;15.40;99.90
19242;DHT22;9755;47.790;9.620;2023-05-10T09:53:45;15.40;99.90
19242;DHT22;9755;47.790;9.620;2023-05-10T09:56:12;15.40;99.90
19242;DHT22;9755;47.790;9.620;2023-05-10T09:58:40;15.30;99.90
19242;DHT22;9755;47.790;9.620;2023-05-10T10:01:12;15.40;99.90
19242;DHT22;9755;47.790;9.620;2023-05-10T10:03:42;15.40;99.90
19242;DHT22;9755;47.790;9.620;2023-05-10T10:06:09;15.10;99.90
19242;DHT22;9755;47.790;9.620;2023-05-10T10:08:37;15.10;99.90
19242;DHT22;9755;47.790;9.620;2023-05-10T10:11:04;15.00;99.90
19242;DHT22;9755;47.790;9.620;2023-05-10T10:13:33;15.10;99.90
19242;DHT22;9755;47.790;9.620;2023-05-10T10:16:01;15.20;99.90
19242;DHT22;9755;47.790;9.620;2023-05-10T10:18:33;15.20;99.90
19242;DHT22;9755;47.790;9.620;2023-05-10T10:21:04;15.10;99.90
19242;DHT22;9755;47.790;9.620;2023-05-10T10:23:35;15.10;99.90
19242;DHT22;9755;47.790;9.620;2023-05-10T10:26:02;14.80;99.90
19242;DHT22;9755;47.790;9.620;2023-05-10T10:28:38;14.90;99.90
19242;DHT22;9755;47.790;9.620;2023-05-10T10:31:15;14.90;99.90
19242;DHT22;9755;47.790;9.620;2023-05-10T10:33:59;14.90;99.90
19242;DHT22;9755;47.790;9.620;2023-05-10T10:36:26;14.80;99.90
19242;DHT22;9755;47.790;9.620;2023-05-10T10:38:57;14.80;99.90
19242;DHT22;9755;47.790;9.620;2023-05-10T10:41:31;14.90;99.90
19242;DHT22;9755;47.790;9.620;2023-05-10T10:47:04;15.00;99.90
19242;DHT22;9755;47.790;9.620;2023-05-10T10:52:54;15.30;99.90
19242;DHT22;9755;47.790;9.620;2023-05-10T10:55:45;15.50;99.90
19242;DHT22;9755;47.790;9.620;2023-05-10T10:58:28;15.80;99.90
19242;DHT22;9755;47.790;9.620;2023-05-10T11:01:14;16.00;99.90
19242;DHT22;9755;47.790;9.620;2023-05-10T11:04:16;15.80;99.90
19242;DHT22;9755;47.790;9.620;2023-05-10T11:06:45;15.70;99.90
19242;DHT22;9755;47.790;9.620;2023-05-10T11:09:14;15.60;99.90
19242;DHT22;9755;47.790;9.620;2023-05-10T11:11:54;15.40;99.90
19242;DHT22;9755;47.790;9.620;2023-05-10T11:14:25;15.50;99.90
19242;DHT22;9755;47.790;9.620;2023-05-10T11:16:52;15.60;99.90
19242;DHT22;9755;47.790;9.620;2023-05-10T11:19:19;15.50;99.90
19242;DHT22;9755;47.790;9.620;2023-05-10T11:21:48;15.70;99.90
19242;DHT22;9755;47.790;9.620;2023-05-10T11:24:18;16.00;99.90
19242;DHT22;9755;47.790;9.620;2023-05-10T11:26:49;15.90;99.90
19242;DHT22;9755;47.790;9.620;2023-05-10T11:29:18;15.90;99.90
19242;DHT22;9755;47.790;9.620;2023-05-10T11:31:48;15.80;99.90
19242;DHT22;9755;47.790;9.620;2023-05-10T11:34:27;15.60;99.90
19242;DHT22;9755;47.790;9.620;2023-05-10T11:36:56;15.20;99.90
19242;DHT22;9755;47.790;9.620;2023-05-10T11:39:27;14.60;99.90
19242;DHT22;9755;47.790;9.620;2023-05-10T11:41:55;14.30;99.90
19242;DHT22;9755;47.790;9.620;2023-05-10T11:44:22;14.00;99.90
19242;DHT22;9755;47.790;9.620;2023-05-10T11:46:49;13.60;99.90
19242;DHT22;9755;47.790;9.620;2023-05-10T11:49:17;12.80;99.90
19242;DHT22;9755;47.790;9.620;2023-05-10T11:51:44;12.30;99.90
19242;DHT22;9755;47.790;9.620;2023-05-10T11:54:11;12.00;99.90
19242;DHT22;9755;47.790;9.620;2023-05-10T11:56:40;11.80;99.90
19242;DHT22;9755;47.790;9.620;2023-05-10T11:59:08;11.70;99.90
19242;DHT22;9755;47.790;9.620;2023-05-10T12:01:35;11.50;99.90
19242;DHT22;9755;47.790;9.620;2023-05-10T12:04:02;11.50;99.90
19242;DHT22;9755;47.790;9.620;2023-05-10T12:06:31;11.50;99.90
19242;DHT22;9755;47.790;9.620;2023-05-10T12:09:02;11.70;99.90
19242;DHT22;9755;47.790;9.620;2023-05-10T12:11:32;11.90;99.90
19242;DHT22;9755;47.790;9.620;2023-05-10T12:14:04;11.70;99.90
19242;DHT22;9755;47.790;9.620;2023-05-10T12:16:32;11.70;99.90
19242;DHT22;9755;47.790;9.620;2023-05-10T12:19:00;11.80;99.90
19242;DHT22;9755;47.790;9.620;2023-05-10T12:21:28;11.80;99.90
19242;DHT22;9755;47.790;9.620;2023-05-10T12:24:03;11.70;99.90
19242;DHT22;9755;47.790;9.620;2023-05-10T12:26:32;11.80;99.90
19242;DHT22;9755;47.790;9.620;2023-05-10T12:29:16;12.10;99.90
19242;DHT22;9755;47.790;9.620;2023-05-10T12:31:53;12.70;99.90
19242;DHT22;9755;47.790;9.620;2023-05-10T12:34:32;13.00;99.90
19242;DHT22;9755;47.790;9.620;2023-05-10T12:37:01;13.40;99.90
19242;DHT22;9755;47.790;9.620;2023-05-10T12:39:38;13.90;99.90
19242;DHT22;9755;47.790;9.620;2023-05-10T12:42:06;14.20;99.90
19242;DHT22;9755;47.790;9.620;2023-05-10T12:44:38;14.80;99.90
19242;DHT22;9755;47.790;9.620;2023-05-10T12:47:05;15.20;99.90
19242;DHT22;9755;47.790;9.620;2023-05-10T12:49:32;16.10;99.90
19242;DHT22;9755;47.790;9.620;2023-05-10T12:51:59;16.40;99.90
19242;DHT22;9755;47.790;9.620;2023-05-10T12:54:26;16.70;99.90
19242;DHT22;9755;47.790;9.620;2023-05-10T12:56:53;16.50;99.90
19242;DHT22;9755;47.790;9.620;2023-05-10T12:59:20;17.20;99.90
19242;DHT22;9755;47.790;9.620;2023-05-10T13:01:49;17.70;99.90
19242;DHT22;9755;47.790;9.620;2023-05-10T13:04:18;17.70;99.90
19242;DHT22;9755;47.790;9.620;2023-05-10T13:06:45;17.70;99.90
19242;DHT22;9755;47.790;9.620;2023-05-10T13:09:13;18.00;99.90
19242;DHT22;9755;47.790;9.620;2023-05-10T13:11:40;17.50;99.90
19242;DHT22;9755;47.790;9.620;2023-05-10T13:14:07;17.80;99.90
19242;DHT22;9755;47.790;9.620;2023-05-10T13:16:36;17.90;99.90
19242;DHT22;9755;47.790;9.620;2023-05-10T13:19:05;18.30;99.90
19242;DHT22;9755;47.790;9.620;2023-05-10T13:21:32;18.40;99.90
19242;DHT22;9755;47.790;9.620;2023-05-10T13:23:59;18.50;99.10
19242;DHT22;9755;47.790;9.620;2023-05-10T13:26:29;17.60;99.90
19242;DHT22;9755;47.790;9.620;2023-05-10T13:28:56;17.60;99.90
19242;DHT22;9755;47.790;9.620;2023-05-10T13:31:23;17.90;99.90
19242;DHT22;9755;47.790;9.620;2023-05-10T13:33:51;18.10;99.10
19242;DHT22;9755;47.790;9.620;2023-05-10T13:36:19;18.20;99.90
19242;DHT22;9755;47.790;9.620;2023-05-10T13:38:46;17.30;99.90
19242;DHT22;9755;47.790;9.620;2023-05-10T13:41:13;17.60;99.90
19242;DHT22;9755;47.790;9.620;2023-05-10T13:43:40;18.00;99.90
19242;DHT22;9755;47.790;9.620;2023-05-10T13:46:07;17.70;99.20
19242;DHT22;9755;47.790;9.620;2023-05-10T13:48:34;17.50;98.20
19242;DHT22;9755;47.790;9.620;2023-05-10T13:51:02;17.40;97.80
19242;DHT22;9755;47.790;9.620;2023-05-10T13:53:31;17.60;98.70
19242;DHT22;9755;47.790;9.620;2023-05-10T13:55:59;17.60;96.80
19242;DHT22;9755;47.790;9.620;2023-05-10T13:58:29;17.60;96.90
19242;DHT22;9755;47.790;9.620;2023-05-10T14:00:56;17.40;96.50
19242;DHT22;9755;47.790;9.620;2023-05-10T14:03:26;17.30;99.90
19242;DHT22;9755;47.790;9.620;2023-05-10T14:05:53;17.10;99.90
19242;DHT22;9755;47.790;9.620;2023-05-10T14:08:20;16.70;99.90
19242;DHT22;9755;47.790;9.620;2023-05-10T14:10:49;16.60;99.90
19242;DHT22;9755;47.790;9.620;2023-05-10T14:13:17;16.30;99.90
19242;DHT22;9755;47.790;9.620;2023-05-10T14:15:44;16.00;99.90
19242;DHT22;9755;47.790;9.620;2023-05-10T14:18:11;15.80;99.90
19242;DHT22;9755;47.790;9.620;2023-05-10T14:20:39;15.90;99.90
19242;DHT22;9755;47.790;9.620;2023-05-10T14:23:16;16.10;99.90
19242;DHT22;9755;47.790;9.620;2023-05-10T14:25:45;16.20;99.90
19242;DHT22;9755;47.790;9.620;2023-05-10T14:28:13;16.10;99.90
19242;DHT22;9755;47.790;9.620;2023-05-10T14:30:41;16.10;99.90
19242;DHT22;9755;47.790;9.620;2023-05-10T14:33:10;16.10;99.90
19242;DHT22;9755;47.790;9.620;2023-05-10T14:35:37;16.30;99.90
19242;DHT22;9755;47.790;9.620;2023-05-10T14:38:04;16.50;99.90
19242;DHT22;9755;47.790;9.620;2023-05-10T14:40:31;15.90;99.90
19242;DHT22;9755;47.790;9.620;2023-05-10T14:42:58;15.60;99.90
19242;DHT22;9755;47.790;9.620;2023-05-10T14:45:30;15.30;99.90
19242;DHT22;9755;47.790;9.620;2023-05-10T14:47:58;15.50;99.90
19242;DHT22;9755;47.790;9.620;2023-05-10T14:50:25;15.70;99.90
19242;DHT22;9755;47.790;9.620;2023-05-10T14:52:52;15.60;99.90
19242;DHT22;9755;47.790;9.620;2023-05-10T14:55:19;15.60;99.90
19242;DHT22;9755;47.790;9.620;2023-05-10T14:57:46;15.60;99.90
19242;DHT22;9755;47.790;9.620;2023-05-10T15:00:16;15.40;99.90
19242;DHT22;9755;47.790;9.620;2023-05-10T15:02:46;15.50;99.90
19242;DHT22;9755;47.790;9.620;2023-05-10T15:05:16;15.10;99.90
19242;DHT22;9755;47.790;9.620;2023-05-10T15:07:43;15.40;99.90
19242;DHT22;9755;47.790;9.620;2023-05-10T15:10:10;15.50;99.90
19242;DHT22;9755;47.790;9.620;2023-05-10T15:12:38;15.60;99.90
19242;DHT22;9755;47.790;9.620;2023-05-10T15:15:08;15.20;99.90
19242;DHT22;9755;47.790;9.620;2023-05-10T15:17:35;15.30;99.90
19242;DHT22;9755;47.790;9.620;2023-05-10T15:20:05;15.30;99.90
19242;DHT22;9755;47.790;9.620;2023-05-10T15:22:40;15.20;99.90
19242;DHT22;9755;47.790;9.620;2023-05-10T15:25:10;15.00;99.90
19242;DHT22;9755;47.790;9.620;2023-05-10T15:27:37;15.00;99.90
19242;DHT22;9755;47.790;9.620;2023-05-10T15:30:06;15.00;99.90
19242;DHT22;9755;47.790;9.620;2023-05-10T15:32:34;14.90;99.90
19242;DHT22;9755;47.790;9.620;2023-05-10T15:35:01;14.80;99.90
19242;DHT22;9755;47.790;9.620;2023-05-10T15:37:29;14.80;99.90
19242;DHT22;9755;47.790;9.620;2023-05-10T15:39:59;14.90;99.90
19242;DHT22;9755;47.790;9.620;2023-05-10T15:42:29;15.00;99.90
19242;DHT22;9755;47.790;9.620;2023-05-10T15:44:57;14.80;99.90
19242;DHT22;9755;47.790;9.620;2023-05-10T15:47:24;14.80;99.90
19242;DHT22;9755;47.790;9.620;2023-05-10T15:49:52;14.90;99.90
19242;DHT22;9755;47.790;9.620;2023-05-10T15:52:19;14.90;99.90
19242;DHT22;9755;47.790;9.620;2023-05-10T15:54:49;14.90;99.90
19242;DHT22;9755;47.790;9.620;2023-05-10T15:57:16;14.90;99.90
19242;DHT22;9755;47.790;9.620;2023-05-10T15:59:46;14.70;99.90
19242;DHT22;9755;47.790;9.620;2023-05-10T16:02:13;14.70;99.90
19242;DHT22;9755;47.790;9.620;2023-05-10T16:04:40;14.70;99.90
19242;DHT22;9755;47.790;9.620;2023-05-10T16:07:10;14.80;99.90
19242;DHT22;9755;47.790;9.620;2023-05-10T16:09:37;14.90;99.90
19242;DHT22;9755;47.790;9.620;2023-05-10T16:12:08;14.70;99.90
19242;DHT22;9755;47.790;9.620;2023-05-10T16:14:35;14.70;99.90